Time;durP1;ratioP1;P1;durP2;ratioP2;P2;SDS_P1;SDS_P2;PMS_P1;PMS_P2;Temp;Humidity;BMP_temperature;BMP_pressure;BME280_temperature;BME280_humidity;BME280_pressure;Samples;Min_cycle;Max_cycle;Signal;HPM_P1;HPM_P2
2022/10/31 00:00:22;;;;;;;9.18;4.75;;;;;;;15.27;59.20;97121.78;4790229;29;20073;-79
2022/10/31 00:02:54;;;;;;;11.60;5.22;;;;;;;15.21;59.48;97120.75;4796679;30;20063;-80
2022/10/31 00:05:26;;;;;;;13.73;4.75;;;;;;;15.13;59.59;97120.94;4798837;29;20059;-80
2022/10/31 00:07:56;;;;;;;7.30;4.00;;;;;;;15.07;59.64;97119.09;4791421;29;20051;-79
2022/10/31 00:10:27;;;;;;;13.57;4.70;;;;;;;15.00;59.86;97126.97;4790703;29;20054;-79
2022/10/31 00:12:56;;;;;;;9.95;4.07;;;;;;;14.97;60.24;97132.59;4790520;29;20112;-79
2022/10/31 00:15:28;;;;;;;9.35;4.80;;;;;;;15.00;60.10;97132.22;4789683;29;20510;-79
2022/10/31 00:17:59;;;;;;;9.02;4.60;;;;;;;15.05;60.47;97134.25;4789844;29;20063;-79
2022/10/31 00:20:31;;;;;;;9.65;4.80;;;;;;;15.05;59.96;97129.00;4789629;29;20051;-79
2022/10/31 00:23:01;;;;;;;10.20;4.47;;;;;;;15.04;60.78;97120.31;4789136;29;20077;-79
2022/10/31 00:25:35;;;;;;;12.35;4.57;;;;;;;15.04;60.16;97132.59;4789522;29;20142;-79
2022/10/31 00:28:05;;;;;;;9.52;4.07;;;;;;;14.99;59.69;97135.03;4789726;29;20134;-79
2022/10/31 00:30:36;;;;;;;12.18;4.70;;;;;;;14.90;59.85;97133.59;4789335;29;20066;-79
2022/10/31 00:33:06;;;;;;;9.05;3.85;;;;;;;14.82;59.85;97131.91;4789584;29;20493;-79
2022/10/31 00:35:38;;;;;;;8.05;4.72;;;;;;;14.75;60.32;97123.22;4789427;29;20077;-79
2022/10/31 00:38:07;;;;;;;11.10;4.28;;;;;;;14.71;60.20;97128.03;4789914;29;20051;-79
2022/10/31 00:40:36;;;;;;;15.90;4.60;;;;;;;14.70;60.24;97130.88;4789299;29;20059;-79
2022/10/31 00:43:05;;;;;;;11.55;4.43;;;;;;;14.70;60.66;97125.63;4789403;29;20051;-79
2022/10/31 00:45:35;;;;;;;7.38;4.20;;;;;;;14.68;60.19;97128.44;4789387;29;20059;-79
2022/10/31 00:48:04;;;;;;;9.77;4.07;;;;;;;14.64;60.34;97124.56;4789267;29;20066;-80
2022/10/31 00:50:34;;;;;;;11.75;4.25;;;;;;;14.59;60.40;97132.22;4789071;29;20108;-79
2022/10/31 00:53:06;;;;;;;7.32;3.70;;;;;;;14.56;60.58;97124.72;4789265;29;20112;-79
2022/10/31 00:55:36;;;;;;;10.27;4.00;;;;;;;14.57;60.65;97126.34;4789220;29;20055;-80
2022/10/31 00:58:06;;;;;;;9.88;3.83;;;;;;;14.54;60.54;97126.69;4789272;29;20474;-79
2022/10/31 01:00:36;;;;;;;8.00;3.90;;;;;;;14.55;61.14;97128.38;4789082;29;20047;-79
2022/10/31 01:03:05;;;;;;;7.80;3.70;;;;;;;14.58;60.90;97127.97;4789184;29;20542;-79
2022/10/31 01:05:34;;;;;;;14.55;4.10;;;;;;;14.59;60.91;97129.59;4789036;29;20059;-79
2022/10/31 01:08:06;;;;;;;13.55;4.63;;;;;;;14.63;61.80;97122.97;4789131;29;20062;-79
2022/10/31 01:10:36;;;;;;;10.65;3.40;;;;;;;14.68;60.80;97123.19;4788533;29;20051;-79
2022/10/31 01:13:08;;;;;;;9.05;3.97;;;;;;;14.66;60.57;97125.19;4788912;29;20055;-79
2022/10/31 01:15:37;;;;;;;11.80;3.47;;;;;;;14.63;60.41;97125.59;4788961;29;20063;-79
2022/10/31 01:18:06;;;;;;;14.20;3.97;;;;;;;14.60;60.47;97123.34;4788539;29;20155;-79
2022/10/31 01:20:35;;;;;;;15.07;4.38;;;;;;;14.57;60.51;97121.09;4788862;29;20063;-79
2022/10/31 01:23:07;;;;;;;9.15;4.25;;;;;;;14.50;60.43;97121.03;4788746;29;20051;-79
2022/10/31 01:25:36;;;;;;;8.27;3.40;;;;;;;14.50;61.07;97115.78;4788799;29;20059;-79
2022/10/31 01:28:06;;;;;;;9.73;3.70;;;;;;;14.58;61.32;97122.72;4788460;29;20054;-79
2022/10/31 01:30:35;;;;;;;7.82;3.05;;;;;;;14.64;60.91;97121.94;4788201;29;20054;-79
2022/10/31 01:33:04;;;;;;;11.38;3.30;;;;;;;14.66;60.35;97119.94;4787528;29;20055;-79
2022/10/31 01:35:33;;;;;;;12.38;3.63;;;;;;;14.63;59.75;97115.09;4788448;29;20051;-79
2022/10/31 01:38:02;;;;;;;8.02;3.53;;;;;;;14.57;60.11;97121.91;4788271;29;20154;-79
2022/10/31 01:40:33;;;;;;;11.27;4.47;;;;;;;14.53;60.06;97118.03;4788328;29;20154;-79
2022/10/31 01:43:02;;;;;;;8.95;3.80;;;;;;;14.46;59.84;97119.00;4788475;30;20066;-79
2022/10/31 01:45:34;;;;;;;5.93;3.42;;;;;;;14.47;60.98;97115.34;4788683;29;20063;-79
2022/10/31 01:48:03;;;;;;;9.32;3.88;;;;;;;14.46;60.57;97106.69;4788231;29;20063;-79
2022/10/31 01:50:35;;;;;;;10.52;3.38;;;;;;;14.46;60.23;97108.50;4788062;29;20078;-79
2022/10/31 01:53:09;;;;;;;13.68;3.78;;;;;;;14.49;60.58;97108.09;4788174;29;20056;-79
2022/10/31 01:55:42;;;;;;;9.52;3.53;;;;;;;14.49;60.42;97115.97;4788437;29;20057;-79
2022/10/31 01:58:15;;;;;;;7.22;3.25;;;;;;;14.45;60.13;97107.66;4788243;29;20059;-79
2022/10/31 02:00:49;;;;;;;9.48;3.80;;;;;;;14.41;60.11;97109.88;4788118;29;20062;-79
2022/10/31 02:03:19;;;;;;;10.43;4.35;;;;;;;14.35;60.18;97102.78;4788300;29;20055;-79
2022/10/31 02:05:50;;;;;;;11.10;3.53;;;;;;;14.32;60.30;97108.44;4788116;30;20071;-79
2022/10/31 02:08:24;;;;;;;8.05;3.97;;;;;;;14.34;60.68;97116.09;4788146;29;20051;-80
2022/10/31 02:10:56;;;;;;;11.43;3.40;;;;;;;14.31;60.21;97108.63;4788008;29;20055;-79
2022/10/31 02:13:26;;;;;;;8.23;3.90;;;;;;;14.26;60.31;97108.38;4788383;30;20051;-79
2022/10/31 02:15:58;;;;;;;9.95;3.95;;;;;;;14.17;60.37;97102.47;4788331;29;20158;-79
2022/10/31 02:18:30;;;;;;;12.52;4.18;;;;;;;14.09;60.50;97097.38;4788263;29;20112;-79
2022/10/31 02:21:12;;;;;;;7.73;3.13;;;;;;;14.00;60.76;97097.50;4788014;29;20059;-79
2022/10/31 02:24:12;;;;;;;7.28;3.05;;;;;;;13.97;61.09;97097.91;4787975;29;20829;-79
2022/10/31 02:27:09;;;;;;;9.75;3.90;;;;;;;13.93;61.05;97094.03;4788039;29;20074;-79
2022/10/31 02:30:05;;;;;;;6.95;3.17;;;;;;;13.93;61.67;97095.84;4786587;29;20104;-79
2022/10/31 02:32:50;;;;;;;10.68;3.22;;;;;;;13.90;61.13;97089.16;4788007;29;20063;-79
2022/10/31 02:35:30;;;;;;;11.05;4.07;;;;;;;13.87;61.23;97080.88;4788013;30;20067;-79
2022/10/31 02:38:10;;;;;;;5.97;2.80;;;;;;;13.85;61.24;97086.31;4787830;29;20146;-79
2022/10/31 02:40:54;;;;;;;11.13;4.43;;;;;;;13.83;61.44;97084.88;4787935;29;20124;-79
2022/10/31 02:43:30;;;;;;;7.38;3.50;;;;;;;13.86;62.05;97085.28;4788041;29;20063;-79
2022/10/31 02:46:04;;;;;;;7.68;3.83;;;;;;;13.85;61.27;97086.31;4790978;29;20059;-79
2022/10/31 02:48:38;;;;;;;15.00;5.55;;;;;;;13.83;61.26;97090.91;4791302;29;20421;-79
2022/10/31 02:51:08;;;;;;;6.03;3.42;;;;;;;13.82;61.08;97089.31;4798501;29;20051;-79
2022/10/31 02:53:39;;;;;;;7.63;3.85;;;;;;;13.86;62.26;97098.41;4800070;29;20078;-79
2022/10/31 02:56:13;;;;;;;10.10;4.68;;;;;;;13.90;61.46;97101.47;4792061;29;20100;-79
2022/10/31 02:58:46;;;;;;;13.52;4.55;;;;;;;13.90;61.58;97090.97;4791584;29;20055;-79
2022/10/31 03:01:40;;;;;;;7.32;4.50;;;;;;;13.85;61.59;97096.78;4790950;29;20057;-79
2022/10/31 03:04:42;;;;;;;9.88;4.45;;;;;;;13.83;61.85;97088.31;4785415;30;20055;-79
2022/10/31 03:07:19;;;;;;;8.88;4.18;;;;;;;13.88;62.22;97095.59;4791748;29;20063;-79
2022/10/31 03:10:00;;;;;;;7.50;3.95;;;;;;;13.86;61.14;97093.16;4791016;29;20051;-79
2022/10/31 03:12:35;;;;;;;11.32;4.65;;;;;;;13.86;63.17;97093.16;4790974;29;20051;-79
2022/10/31 03:15:14;;;;;;;6.65;3.95;;;;;;;13.87;62.38;97094.78;4791181;29;20063;-79
2022/10/31 03:17:52;;;;;;;9.35;3.92;;;;;;;13.86;61.38;97095.78;4790831;29;20105;-79
2022/10/31 03:20:31;;;;;;;8.48;4.07;;;;;;;13.80;61.45;97094.75;4790981;30;20084;-79
2022/10/31 03:23:03;;;;;;;11.10;3.60;;;;;;;13.74;61.41;97094.69;4790830;29;20055;-79
2022/10/31 03:25:34;;;;;;;7.57;3.65;;;;;;;13.65;61.40;97086.16;4790743;29;20063;-79
2022/10/31 03:28:05;;;;;;;10.18;3.95;;;;;;;13.64;61.99;97089.75;4791074;29;20438;-79
2022/10/31 03:30:39;;;;;;;7.25;3.30;;;;;;;13.71;62.67;97089.81;4790641;29;20510;-79
2022/10/31 03:33:14;;;;;;;8.15;3.80;;;;;;;13.75;62.01;97089.25;4790661;29;20063;-79
2022/10/31 03:35:49;;;;;;;7.07;4.07;;;;;;;13.80;62.15;97093.94;4790369;30;20062;-79
2022/10/31 03:38:19;;;;;;;8.68;4.68;;;;;;;13.74;60.70;97097.31;4790310;29;20583;-79
2022/10/31 03:40:51;;;;;;;9.60;4.38;;;;;;;13.68;61.62;97087.56;4790407;29;20117;-79
2022/10/31 03:43:25;;;;;;;8.57;4.78;;;;;;;13.68;61.29;97100.69;4790539;29;20142;-79
2022/10/31 03:45:54;;;;;;;14.95;4.78;;;;;;;13.59;60.75;97100.81;4790473;29;20090;-79
2022/10/31 03:48:25;;;;;;;16.90;5.05;;;;;;;13.48;60.89;97101.31;4790290;29;20051;-79
2022/10/31 03:53:45;;;;;;;9.18;4.60;;;;;;;13.32;61.54;97096.34;5207504;24;20051;-79
2022/10/31 03:56:20;;;;;;;9.90;4.85;;;;;;;13.28;61.74;97097.69;4789544;29;20161;-79
2022/10/31 03:58:54;;;;;;;11.10;4.80;;;;;;;13.25;61.52;97098.03;4790319;29;20059;-79
2022/10/31 04:01:24;;;;;;;9.27;4.43;;;;;;;13.22;61.96;97101.03;4790009;29;20070;-79
2022/10/31 04:03:53;;;;;;;7.78;4.85;;;;;;;13.22;61.80;97103.66;4790366;29;20138;-79
2022/10/31 04:06:23;;;;;;;8.43;4.63;;;;;;;13.19;61.84;97108.25;4789999;29;20081;-80
2022/10/31 04:08:57;;;;;;;13.38;5.32;;;;;;;13.23;62.14;97097.41;4789821;29;20158;-79
2022/10/31 04:11:30;;;;;;;11.32;5.10;;;;;;;13.25;62.25;97100.66;4789941;29;20147;-79
2022/10/31 04:14:02;;;;;;;8.43;4.80;;;;;;;13.23;61.70;97094.78;4789675;29;20065;-79
2022/10/31 04:16:30;;;;;;;16.75;5.43;;;;;;;13.24;61.92;97099.03;4790130;29;20055;-79
2022/10/31 04:18:58;;;;;;;8.70;3.88;;;;;;;13.24;61.69;97094.59;4789847;29;20051;-79
2022/10/31 04:21:30;;;;;;;8.07;4.00;;;;;;;13.26;62.36;97091.81;4789510;29;20051;-79
2022/10/31 04:23:59;;;;;;;6.95;3.47;;;;;;;13.28;62.50;97092.44;4789661;29;20055;-79
2022/10/31 04:26:28;;;;;;;9.38;3.97;;;;;;;13.31;62.34;97089.47;4789780;29;20055;-79
2022/10/31 04:28:56;;;;;;;8.93;4.10;;;;;;;13.32;62.74;97085.84;4789743;29;20057;-79
2022/10/31 04:31:24;;;;;;;10.95;4.20;;;;;;;13.35;62.92;97093.34;4789240;29;20062;-79
2022/10/31 04:33:52;;;;;;;11.30;5.80;;;;;;;13.34;62.82;97086.47;4789430;29;20055;-79
2022/10/31 04:36:20;;;;;;;11.75;4.93;;;;;;;13.35;63.32;97086.28;4789524;29;20136;-79
2022/10/31 04:38:49;;;;;;;11.10;4.60;;;;;;;13.36;63.26;97087.09;4789317;29;20143;-79
2022/10/31 04:41:19;;;;;;;14.05;4.55;;;;;;;13.28;61.90;97084.56;4789442;29;20109;-79
2022/10/31 04:43:48;;;;;;;10.35;4.75;;;;;;;13.19;61.84;97087.31;4789204;29;20071;-79
2022/10/31 04:46:16;;;;;;;13.13;5.22;;;;;;;13.11;61.90;97079.56;4789391;29;20060;-79
2022/10/31 04:48:45;;;;;;;10.00;4.97;;;;;;;13.10;62.45;97080.56;4789187;29;20143;-79
2022/10/31 04:51:14;;;;;;;11.63;4.50;;;;;;;13.09;62.10;97081.53;4789091;29;20104;-79
2022/10/31 04:53:43;;;;;;;10.20;4.78;;;;;;;13.09;62.56;97071.06;4788796;29;20521;-79
2022/10/31 04:56:12;;;;;;;11.35;7.13;;;;;;;13.13;62.71;97072.31;4788959;29;20507;-79
2022/10/31 04:58:42;;;;;;;9.65;4.75;;;;;;;13.10;61.96;97071.91;4788913;29;20055;-79
2022/10/31 05:01:11;;;;;;;8.45;5.00;;;;;;;13.05;62.08;97069.81;4789099;29;20067;-79
2022/10/31 05:03:40;;;;;;;11.77;4.88;;;;;;;13.06;62.29;97066.22;4788899;29;20104;-79
2022/10/31 05:06:09;;;;;;;10.07;5.22;;;;;;;13.04;62.07;97068.22;4789058;29;20079;-79
2022/10/31 05:08:38;;;;;;;10.90;4.93;;;;;;;13.02;62.30;97064.97;4788655;29;20051;-79
2022/10/31 05:11:06;;;;;;;9.23;4.95;;;;;;;13.01;62.32;97065.97;4788860;29;20059;-79
2022/10/31 05:13:35;;;;;;;9.88;5.75;;;;;;;12.99;62.46;97067.97;4788872;29;20109;-79
2022/10/31 05:16:06;;;;;;;7.68;5.00;;;;;;;13.01;63.80;97062.53;4788446;29;20576;-79
2022/10/31 05:18:35;;;;;;;11.32;4.93;;;;;;;13.07;63.08;97067.81;4788714;29;20055;-79
2022/10/31 05:21:04;;;;;;;11.82;4.80;;;;;;;13.16;63.16;97063.28;4788771;29;20081;-79
2022/10/31 05:23:32;;;;;;;7.07;4.50;;;;;;;13.20;62.56;97070.56;4788754;29;20455;-79
2022/10/31 05:26:01;;;;;;;6.43;4.03;;;;;;;13.22;62.62;97059.91;4788433;29;20055;-79
2022/10/31 05:28:30;;;;;;;10.75;4.68;;;;;;;13.24;63.10;97067.59;4788903;29;20473;-79
2022/10/31 05:30:58;;;;;;;10.73;5.00;;;;;;;13.26;63.35;97063.00;4788342;29;20083;-79
2022/10/31 05:33:29;;;;;;;7.32;4.63;;;;;;;13.27;62.39;97061.97;4788639;29;20059;-79
2022/10/31 05:35:58;;;;;;;6.75;4.10;;;;;;;13.25;62.00;97054.31;4788547;29;20467;-79
2022/10/31 05:38:26;;;;;;;9.20;3.83;;;;;;;13.24;62.53;97059.75;4794867;29;20067;-80
2022/10/31 05:40:59;;;;;;;8.00;4.10;;;;;;;13.24;62.58;97055.31;4800728;29;20446;-79
2022/10/31 05:43:29;;;;;;;6.88;4.05;;;;;;;13.26;62.38;97048.06;4793111;29;20063;-79
2022/10/31 05:45:58;;;;;;;9.52;3.53;;;;;;;13.26;62.18;97047.28;4788648;29;20583;-79
2022/10/31 05:48:26;;;;;;;9.90;4.90;;;;;;;13.25;62.30;97045.63;4788543;29;20059;-79
2022/10/31 05:50:56;;;;;;;10.15;3.60;;;;;;;13.26;63.11;97049.88;4788232;29;20495;-79
2022/10/31 05:53:24;;;;;;;11.07;4.38;;;;;;;13.30;63.66;97045.94;4788192;29;20055;-79
2022/10/31 05:55:52;;;;;;;9.32;4.93;;;;;;;13.33;63.42;97043.72;4788445;29;20141;-79
2022/10/31 05:58:21;;;;;;;8.77;4.00;;;;;;;13.37;63.83;97036.31;4788327;29;20434;-80
2022/10/31 06:00:49;;;;;;;6.18;4.13;;;;;;;13.35;63.20;97038.31;4788258;29;20062;-79
2022/10/31 06:03:18;;;;;;;7.22;4.15;;;;;;;13.31;62.43;97032.63;4788103;29;20090;-79
2022/10/31 06:05:46;;;;;;;15.18;4.28;;;;;;;13.29;62.65;97037.25;4788114;29;20128;-79
2022/10/31 06:08:23;;;;;;;11.27;4.38;;;;;;;13.30;62.92;97030.22;4788870;30;20074;-79
2022/10/31 06:10:52;;;;;;;11.25;4.28;;;;;;;13.30;62.82;97027.59;4788168;29;20503;-79
2022/10/31 06:13:21;;;;;;;8.77;4.35;;;;;;;13.29;62.05;97023.34;4788048;29;20055;-79
2022/10/31 06:15:50;;;;;;;10.77;5.13;;;;;;;13.29;62.83;97018.09;4788168;29;20086;-79
2022/10/31 06:18:19;;;;;;;8.10;4.43;;;;;;;13.28;62.23;97027.78;4787723;29;20055;-79
2022/10/31 06:20:48;;;;;;;11.40;5.25;;;;;;;13.23;61.74;97035.38;4790858;29;20094;-79
2022/10/31 06:23:19;;;;;;;13.75;5.63;;;;;;;13.15;61.32;97035.47;4791745;29;20093;-79
2022/10/31 06:25:51;;;;;;;10.65;5.35;;;;;;;13.06;61.38;97034.78;4791775;29;20059;-79
2022/10/31 06:28:20;;;;;;;12.70;5.40;;;;;;;12.98;61.62;97032.28;4791604;29;20062;-79
2022/10/31 06:30:48;;;;;;;9.70;5.22;;;;;;;12.94;62.44;97037.09;4791433;29;20498;-79
2022/10/31 06:33:17;;;;;;;10.35;4.72;;;;;;;12.93;62.37;97039.91;4791287;29;20104;-79
2022/10/31 06:35:47;;;;;;;7.53;4.90;;;;;;;12.93;61.85;97040.69;4791590;29;20468;-79
2022/10/31 06:38:16;;;;;;;11.45;5.32;;;;;;;12.90;61.72;97037.63;4791385;29;20055;-79
2022/10/31 06:40:45;;;;;;;11.07;5.45;;;;;;;12.85;61.81;97043.44;4791199;29;20067;-79
2022/10/31 06:43:16;;;;;;;9.95;5.25;;;;;;;12.83;62.17;97042.00;4791394;29;20059;-79
2022/10/31 06:45:45;;;;;;;9.55;4.90;;;;;;;12.82;62.31;97038.56;4791189;29;20055;-79
2022/10/31 06:48:13;;;;;;;11.77;4.90;;;;;;;12.82;62.51;97032.53;4792455;29;20055;-79
2022/10/31 06:50:46;;;;;;;8.00;3.92;;;;;;;12.84;62.65;97035.78;4792692;29;20083;-79
2022/10/31 06:53:15;;;;;;;8.40;3.47;;;;;;;12.89;62.79;97042.06;4791205;29;20100;-79
2022/10/31 06:55:44;;;;;;;7.10;3.67;;;;;;;12.99;62.95;97037.34;4790829;29;20515;-79
2022/10/31 06:58:13;;;;;;;6.68;4.32;;;;;;;13.07;62.16;97036.41;4791360;29;20325;-79
2022/10/31 07:00:43;;;;;;;12.00;4.30;;;;;;;13.19;62.33;97045.41;4791030;29;20051;-79
2022/10/31 07:03:15;;;;;;;10.00;4.95;;;;;;;13.26;61.38;97049.88;4791041;29;20058;-79
2022/10/31 07:05:44;;;;;;;7.32;4.50;;;;;;;13.30;61.22;97051.16;4791018;29;20055;-79
2022/10/31 07:08:15;;;;;;;7.95;4.68;;;;;;;13.34;60.98;97045.38;4790643;29;20059;-79
2022/10/31 07:10:44;;;;;;;7.32;4.10;;;;;;;13.37;60.83;97034.50;4790969;29;20055;-79
2022/10/31 07:13:14;;;;;;;9.15;4.90;;;;;;;13.41;60.76;97040.19;4790679;29;20047;-79
2022/10/31 07:15:45;;;;;;;8.50;5.00;;;;;;;13.43;61.03;97043.44;4790725;29;20253;-79
2022/10/31 07:18:14;;;;;;;8.55;4.28;;;;;;;13.46;61.41;97029.94;4790830;29;20114;-79
2022/10/31 07:20:42;;;;;;;9.73;4.50;;;;;;;13.51;61.23;97035.44;4791032;29;20490;-80
2022/10/31 07:23:13;;;;;;;8.82;4.13;;;;;;;13.56;61.11;97032.25;4790795;29;20116;-79
2022/10/31 07:25:42;;;;;;;10.90;3.63;;;;;;;13.60;61.51;97031.66;4790985;29;20112;-79
2022/10/31 07:28:11;;;;;;;6.93;3.92;;;;;;;13.68;61.69;97037.75;4790653;29;20067;-79
2022/10/31 07:30:41;;;;;;;8.90;4.57;;;;;;;13.79;61.48;97040.66;4790692;29;20059;-80
2022/10/31 07:33:11;;;;;;;7.53;4.28;;;;;;;13.90;61.76;97046.38;4790730;29;20116;-79
2022/10/31 07:35:40;;;;;;;10.82;5.00;;;;;;;14.01;60.97;97044.06;4790891;29;20116;-79
2022/10/31 07:38:11;;;;;;;8.15;4.53;;;;;;;14.13;60.92;97040.91;4790797;29;20426;-79
2022/10/31 07:40:40;;;;;;;6.68;4.65;;;;;;;14.26;60.71;97038.34;4791008;29;20392;-79
2022/10/31 07:43:09;;;;;;;6.63;4.10;;;;;;;14.38;60.86;97034.16;4790623;29;20055;-79
2022/10/31 07:45:42;;;;;;;8.77;5.32;;;;;;;14.49;59.93;97039.84;4790863;29;20083;-79
2022/10/31 07:48:13;;;;;;;7.95;4.47;;;;;;;14.60;59.83;97044.56;4790368;29;20063;-79
2022/10/31 07:50:42;;;;;;;13.25;5.63;;;;;;;14.71;60.00;97044.00;4790162;29;20503;-79
2022/10/31 07:53:12;;;;;;;14.18;5.97;;;;;;;14.84;60.04;97038.78;4790022;29;20058;-79
2022/10/31 07:55:41;;;;;;;11.73;5.60;;;;;;;14.99;59.55;97043.09;4790362;29;20059;-79
2022/10/31 07:58:15;;;;;;;12.18;5.50;;;;;;;15.16;60.21;97046.97;4790197;29;20059;-79
2022/10/31 08:00:46;;;;;;;9.40;5.63;;;;;;;15.35;60.32;97039.28;4790013;29;20059;-79
2022/10/31 08:03:18;;;;;;;13.63;5.28;;;;;;;15.55;60.42;97034.88;4790220;29;20124;-79
2022/10/31 08:05:48;;;;;;;6.80;4.63;;;;;;;15.78;59.91;97031.03;4790187;30;20146;-79
2022/10/31 08:08:17;;;;;;;13.55;5.57;;;;;;;15.99;59.40;97030.81;4790313;29;20065;-79
2022/10/31 08:10:47;;;;;;;12.82;5.28;;;;;;;16.20;58.41;97028.94;4790043;29;20066;-79
2022/10/31 08:13:17;;;;;;;13.77;4.72;;;;;;;16.38;57.90;97034.34;4789948;29;20047;-79
2022/10/31 08:15:50;;;;;;;9.30;4.80;;;;;;;16.56;57.52;97025.78;4789607;29;20059;-79
2022/10/31 08:18:24;;;;;;;11.65;4.75;;;;;;;16.75;57.37;97028.50;4790030;29;20065;-79
2022/10/31 08:24:20;;;;;;;10.48;5.88;;;;;;;17.14;56.47;97022.25;5736354;24;20041;-79
2022/10/31 08:26:49;;;;;;;8.40;4.65;;;;;;;17.30;56.36;97024.38;4790810;29;20058;-79
2022/10/31 08:29:16;;;;;;;12.20;4.93;;;;;;;17.49;56.13;97014.72;4790681;29;20062;-79
2022/10/31 08:37:09;;;;;;;13.05;5.97;;;;;;;17.87;54.39;97016.44;5752677;24;20041;-78
2022/10/31 08:39:36;;;;;;;6.97;5.97;;;;;;;17.97;54.59;97021.19;4772016;30;20063;-79
2022/10/31 08:42:04;;;;;;;13.13;6.15;;;;;;;18.10;54.39;97010.53;4770710;30;20052;-77
2022/10/31 08:44:32;;;;;;;19.75;7.05;;;;;;;18.24;54.20;97010.38;4770629;30;20503;-77
2022/10/31 08:46:59;;;;;;;10.90;5.60;;;;;;;18.35;53.70;97007.00;4770639;30;20056;-77
2022/10/31 08:49:27;;;;;;;13.07;5.55;;;;;;;18.48;53.34;97006.03;4770269;30;20055;-77
2022/10/31 08:51:54;;;;;;;9.45;5.75;;;;;;;18.63;53.58;97002.97;4770368;30;20060;-77
2022/10/31 08:54:23;;;;;;;14.38;5.28;;;;;;;18.74;52.95;96999.59;4770308;30;20056;-77
2022/10/31 08:56:54;;;;;;;9.70;4.68;;;;;;;18.89;53.45;97000.03;4770516;30;20059;-77
2022/10/31 08:59:25;;;;;;;9.00;4.78;;;;;;;19.02;53.04;97004.34;4770027;30;20064;-77
2022/10/31 09:01:52;;;;;;;11.63;6.05;;;;;;;19.13;52.54;97000.91;4770397;30;20059;-77
2022/10/31 09:04:20;;;;;;;8.95;5.18;;;;;;;19.21;52.24;96998.97;4770145;30;20055;-77
2022/10/31 09:06:48;;;;;;;10.50;5.40;;;;;;;19.29;52.22;97002.09;4770084;30;20067;-77
2022/10/31 09:09:37;;;;;;;10.93;5.13;;;;;;;19.46;52.34;96991.66;4769722;30;20059;-77
2022/10/31 09:12:04;;;;;;;9.93;5.22;;;;;;;19.59;52.29;96990.63;4770097;30;20065;-77
2022/10/31 09:14:32;;;;;;;11.43;6.63;;;;;;;19.75;51.93;96987.31;4769950;30;20062;-77
2022/10/31 09:16:59;;;;;;;14.85;5.15;;;;;;;19.92;51.67;96994.56;4769948;30;20469;-77
2022/10/31 09:19:27;;;;;;;11.13;4.60;;;;;;;20.08;51.85;96991.19;4769935;30;20055;-77
2022/10/31 09:21:54;;;;;;;11.88;4.60;;;;;;;20.28;51.44;96987.38;4769937;30;20056;-77
2022/10/31 09:24:22;;;;;;;8.77;4.90;;;;;;;20.48;51.07;96992.28;4770140;30;20432;-77
2022/10/31 09:26:51;;;;;;;12.10;5.50;;;;;;;20.63;50.41;96992.59;4770028;30;20060;-77
2022/10/31 09:29:19;;;;;;;10.82;5.38;;;;;;;20.80;50.28;96990.00;4769479;30;20055;-77
2022/10/31 09:31:46;;;;;;;11.27;5.78;;;;;;;21.01;49.62;96979.75;4769735;30;20064;-77
2022/10/31 09:34:14;;;;;;;11.23;5.60;;;;;;;21.27;48.53;96987.06;4769854;30;20415;-77
2022/10/31 09:36:42;;;;;;;9.82;5.32;;;;;;;21.54;48.20;96984.63;4770575;30;20062;-78
2022/10/31 09:39:10;;;;;;;7.80;4.60;;;;;;;21.72;47.90;96988.88;4769867;30;20511;-77
2022/10/31 09:42:06;;;;;;;9.25;4.93;;;;;;;21.87;48.33;96990.94;4769724;30;20063;-77
2022/10/31 09:44:47;;;;;;;14.13;4.63;;;;;;;22.01;47.28;96994.06;4751030;30;20424;-76
2022/10/31 09:47:30;;;;;;;8.80;4.73;;;;;;;22.21;47.15;96981.06;4769874;30;20063;-77
2022/10/31 09:50:11;;;;;;;13.13;4.68;;;;;;;22.41;46.37;96990.34;4769451;30;20288;-77
2022/10/31 09:52:44;;;;;;;8.18;4.40;;;;;;;22.45;46.21;96982.69;4769778;30;20067;-77
2022/10/31 09:55:17;;;;;;;12.40;4.70;;;;;;;22.37;46.67;96984.72;4768775;30;20059;-77
2022/10/31 09:57:46;;;;;;;13.55;4.95;;;;;;;22.41;47.51;96988.50;4769417;30;20076;-77
2022/10/31 10:00:18;;;;;;;17.25;4.72;;;;;;;22.67;47.14;96980.00;4769461;30;20490;-77
2022/10/31 10:02:50;;;;;;;10.73;4.72;;;;;;;22.87;46.09;96985.53;4769659;30;20055;-77
2022/10/31 10:05:23;;;;;;;11.75;5.30;;;;;;;22.93;46.70;96976.53;4770237;30;20112;-77
2022/10/31 10:08:00;;;;;;;8.52;5.28;;;;;;;22.95;46.51;96970.97;4770028;30;20190;-78
2022/10/31 10:10:47;;;;;;;13.90;5.38;;;;;;;23.07;46.47;96974.31;4770308;30;20064;-77
2022/10/31 10:13:43;;;;;;;11.18;5.10;;;;;;;23.43;46.29;96975.41;4769484;30;20522;-78
2022/10/31 10:16:25;;;;;;;14.05;5.10;;;;;;;23.76;45.67;96970.84;4770129;30;20071;-78
2022/10/31 10:19:05;;;;;;;6.55;5.10;;;;;;;24.06;45.21;96964.91;4769854;30;20055;-78
2022/10/31 10:21:44;;;;;;;8.82;5.25;;;;;;;24.62;43.93;96972.34;4769835;30;20115;-79
2022/10/31 10:24:34;;;;;;;13.38;5.65;;;;;;;25.73;42.35;96963.88;4770427;30;20063;-78
2022/10/31 10:27:14;;;;;;;15.13;5.93;;;;;;;26.76;39.45;96963.53;4770264;30;20051;-79
2022/10/31 10:29:53;;;;;;;18.95;5.80;;;;;;;27.62;37.50;96959.41;4770213;30;20085;-78
2022/10/31 10:32:25;;;;;;;13.00;5.55;;;;;;;28.29;35.58;96956.03;4770981;30;20059;-78
2022/10/31 10:34:58;;;;;;;14.98;5.82;;;;;;;28.68;35.09;96947.75;4771169;30;20063;-78
2022/10/31 10:37:31;;;;;;;14.45;5.53;;;;;;;29.21;34.60;96953.97;4770580;30;20051;-79
2022/10/31 10:40:07;;;;;;;12.25;5.03;;;;;;;29.72;33.13;96953.94;4770309;30;20055;-78
2022/10/31 10:48:15;;;;;;;13.38;5.82;;;;;;;30.39;31.51;96945.41;4769866;30;20063;-78
2022/10/31 10:50:47;;;;;;;13.52;5.50;;;;;;;30.21;31.69;96937.41;4770268;30;20060;-78
2022/10/31 10:53:35;;;;;;;11.20;5.15;;;;;;;30.06;32.57;96939.31;4770359;30;20052;-78
2022/10/31 10:56:13;;;;;;;12.43;5.13;;;;;;;30.32;31.69;96938.81;4770080;30;20056;-78
2022/10/31 10:58:42;;;;;;;9.57;4.50;;;;;;;30.54;31.57;96935.41;4769575;30;20063;-78
2022/10/31 11:01:13;;;;;;;10.95;4.75;;;;;;;30.70;31.23;96927.75;4770008;30;20056;-78
2022/10/31 11:03:47;;;;;;;10.68;4.85;;;;;;;31.14;29.89;96935.13;4770254;30;20059;-78
2022/10/31 11:06:21;;;;;;;10.82;4.30;;;;;;;31.58;29.42;96938.91;4772236;30;20071;-78
2022/10/31 11:08:50;;;;;;;13.73;5.15;;;;;;;31.88;28.87;96927.59;4773129;30;20066;-78
2022/10/31 11:11:26;;;;;;;10.60;4.25;;;;;;;31.85;28.76;96925.53;4773453;30;20066;-78
2022/10/31 11:14:00;;;;;;;16.75;4.82;;;;;;;31.54;29.06;96923.66;4773873;30;20062;-78
2022/10/31 11:16:31;;;;;;;10.55;3.67;;;;;;;31.29;29.81;96916.97;4774252;30;20507;-79
2022/10/31 11:19:15;;;;;;;7.82;3.97;;;;;;;31.24;29.19;96914.41;4773063;30;20060;-78
2022/10/31 11:21:44;;;;;;;9.57;4.22;;;;;;;31.05;29.74;96906.50;4773351;30;20055;-78
2022/10/31 11:24:23;;;;;;;13.40;4.25;;;;;;;30.90;30.07;96910.41;4773151;30;20147;-78
2022/10/31 11:26:52;;;;;;;11.10;3.88;;;;;;;30.79;29.50;96905.22;4773216;30;20176;-78
2022/10/31 11:29:24;;;;;;;11.13;4.03;;;;;;;30.57;30.07;96908.66;4772829;30;20066;-77
2022/10/31 11:31:54;;;;;;;10.00;4.78;;;;;;;30.31;30.52;96911.13;4773065;30;20067;-78
2022/10/31 11:34:30;;;;;;;10.10;4.07;;;;;;;29.95;30.97;96897.56;4772857;30;20062;-77
2022/10/31 11:37:04;;;;;;;10.93;4.50;;;;;;;29.53;31.50;96907.50;4772862;30;20070;-78
2022/10/31 11:39:32;;;;;;;13.68;4.43;;;;;;;29.32;32.21;96904.34;4772386;30;20086;-78
2022/10/31 11:42:03;;;;;;;10.88;4.25;;;;;;;29.35;32.32;96906.47;4772373;30;20416;-78
2022/10/31 11:44:35;;;;;;;16.38;5.40;;;;;;;29.44;32.62;96898.53;4772629;30;20058;-78
2022/10/31 11:47:06;;;;;;;15.55;5.00;;;;;;;29.47;32.36;96897.91;4772569;30;20064;-78
2022/10/31 11:49:38;;;;;;;13.50;4.43;;;;;;;29.44;32.73;96895.84;4772650;30;20056;-78
2022/10/31 11:52:09;;;;;;;12.50;4.60;;;;;;;29.41;32.53;96891.84;4772655;30;20296;-78
2022/10/31 11:54:43;;;;;;;13.50;5.20;;;;;;;29.35;32.34;96882.28;4771940;30;20052;-78
2022/10/31 11:57:24;;;;;;;11.80;4.65;;;;;;;29.10;32.63;96873.59;4772750;30;20071;-78
2022/10/31 11:59:53;;;;;;;12.23;4.63;;;;;;;28.89;33.22;96873.09;4772266;30;20067;-78
2022/10/31 12:02:21;;;;;;;14.57;5.75;;;;;;;29.04;33.20;96866.66;4772421;30;20120;-78
2022/10/31 12:05:01;;;;;;;11.18;5.35;;;;;;;29.44;32.94;96871.66;4772149;30;20056;-79
2022/10/31 12:07:29;;;;;;;12.30;4.93;;;;;;;30.05;31.82;96869.69;4772265;30;20056;-78